sensor_id;sensor_type;location;lat;lon;timestamp;P1;durP1;ratioP1;P2;durP2;ratioP2
10717;SDS011;13513;42.700;23.124;2023-12-20T00:02:23;20.80;;;13.53;;
10717;SDS011;13513;42.700;23.124;2023-12-20T00:04:51;21.10;;;12.23;;
10717;SDS011;13513;42.700;23.124;2023-12-20T00:07:18;21.60;;;11.73;;
10717;SDS011;13513;42.700;23.124;2023-12-20T00:09:46;18.87;;;10.97;;
10717;SDS011;13513;42.700;23.124;2023-12-20T00:12:13;22.30;;;13.10;;
10717;SDS011;13513;42.700;23.124;2023-12-20T00:14:41;25.70;;;16.00;;
10717;SDS011;13513;42.700;23.124;2023-12-20T00:17:08;28.37;;;14.63;;
10717;SDS011;13513;42.700;23.124;2023-12-20T00:19:35;24.77;;;14.87;;
10717;SDS011;13513;42.700;23.124;2023-12-20T00:22:03;21.17;;;12.80;;
10717;SDS011;13513;42.700;23.124;2023-12-20T00:24:30;22.70;;;12.87;;
10717;SDS011;13513;42.700;23.124;2023-12-20T00:26:58;25.57;;;12.40;;
10717;SDS011;13513;42.700;23.124;2023-12-20T00:29:25;26.90;;;13.77;;
10717;SDS011;13513;42.700;23.124;2023-12-20T00:31:53;25.53;;;13.10;;
10717;SDS011;13513;42.700;23.124;2023-12-20T00:34:20;20.30;;;12.87;;
10717;SDS011;13513;42.700;23.124;2023-12-20T00:36:48;21.90;;;12.73;;
10717;SDS011;13513;42.700;23.124;2023-12-20T00:39:15;22.80;;;12.97;;
10717;SDS011;13513;42.700;23.124;2023-12-20T00:41:42;24.07;;;11.93;;
10717;SDS011;13513;42.700;23.124;2023-12-20T00:44:10;22.10;;;10.67;;
10717;SDS011;13513;42.700;23.124;2023-12-20T00:46:37;18.97;;;10.90;;
10717;SDS011;13513;42.700;23.124;2023-12-20T00:49:05;18.00;;;10.83;;
10717;SDS011;13513;42.700;23.124;2023-12-20T00:51:32;19.30;;;11.53;;
10717;SDS011;13513;42.700;23.124;2023-12-20T00:54:00;20.80;;;10.47;;
10717;SDS011;13513;42.700;23.124;2023-12-20T00:56:28;16.93;;;9.27;;
10717;SDS011;13513;42.700;23.124;2023-12-20T00:58:55;21.20;;;14.10;;
10717;SDS011;13513;42.700;23.124;2023-12-20T01:01:22;19.67;;;11.83;;
10717;SDS011;13513;42.700;23.124;2023-12-20T01:03:50;15.03;;;10.80;;
10717;SDS011;13513;42.700;23.124;2023-12-20T01:06:18;14.30;;;8.97;;
10717;SDS011;13513;42.700;23.124;2023-12-20T01:08:45;16.40;;;9.77;;
10717;SDS011;13513;42.700;23.124;2023-12-20T01:11:13;15.93;;;10.00;;
10717;SDS011;13513;42.700;23.124;2023-12-20T01:13:40;17.03;;;10.00;;
10717;SDS011;13513;42.700;23.124;2023-12-20T01:16:11;16.07;;;9.83;;
10717;SDS011;13513;42.700;23.124;2023-12-20T01:18:39;17.47;;;8.83;;
10717;SDS011;13513;42.700;23.124;2023-12-20T01:21:06;13.67;;;8.70;;
10717;SDS011;13513;42.700;23.124;2023-12-20T01:23:34;15.50;;;9.50;;
10717;SDS011;13513;42.700;23.124;2023-12-20T01:26:01;14.77;;;10.33;;
10717;SDS011;13513;42.700;23.124;2023-12-20T01:28:31;13.77;;;8.30;;
10717;SDS011;13513;42.700;23.124;2023-12-20T01:30:58;18.03;;;8.57;;
10717;SDS011;13513;42.700;23.124;2023-12-20T01:33:26;14.37;;;8.00;;
10717;SDS011;13513;42.700;23.124;2023-12-20T01:35:53;11.60;;;7.90;;
10717;SDS011;13513;42.700;23.124;2023-12-20T01:38:20;16.23;;;7.90;;
10717;SDS011;13513;42.700;23.124;2023-12-20T01:40:48;15.17;;;8.53;;
10717;SDS011;13513;42.700;23.124;2023-12-20T01:43:15;17.73;;;8.27;;
10717;SDS011;13513;42.700;23.124;2023-12-20T01:45:43;17.67;;;9.43;;
10717;SDS011;13513;42.700;23.124;2023-12-20T01:48:10;19.60;;;9.90;;
10717;SDS011;13513;42.700;23.124;2023-12-20T01:50:39;25.37;;;11.77;;
10717;SDS011;13513;42.700;23.124;2023-12-20T01:53:08;26.50;;;12.33;;
10717;SDS011;13513;42.700;23.124;2023-12-20T01:55:39;20.60;;;11.43;;
10717;SDS011;13513;42.700;23.124;2023-12-20T01:58:07;17.13;;;10.20;;
10717;SDS011;13513;42.700;23.124;2023-12-20T02:00:36;17.93;;;9.53;;
10717;SDS011;13513;42.700;23.124;2023-12-20T02:03:04;16.63;;;9.20;;
10717;SDS011;13513;42.700;23.124;2023-12-20T02:05:33;13.07;;;7.60;;
10717;SDS011;13513;42.700;23.124;2023-12-20T02:08:03;15.47;;;8.77;;
10717;SDS011;13513;42.700;23.124;2023-12-20T02:10:31;15.90;;;8.73;;
10717;SDS011;13513;42.700;23.124;2023-12-20T02:12:59;21.83;;;9.10;;
10717;SDS011;13513;42.700;23.124;2023-12-20T02:15:26;19.10;;;9.87;;
10717;SDS011;13513;42.700;23.124;2023-12-20T02:17:54;19.13;;;9.47;;
10717;SDS011;13513;42.700;23.124;2023-12-20T02:20:21;18.80;;;10.83;;
10717;SDS011;13513;42.700;23.124;2023-12-20T02:22:49;19.20;;;9.30;;
10717;SDS011;13513;42.700;23.124;2023-12-20T02:25:16;17.87;;;8.23;;
10717;SDS011;13513;42.700;23.124;2023-12-20T02:27:44;16.70;;;9.43;;
10717;SDS011;13513;42.700;23.124;2023-12-20T02:30:12;17.90;;;9.37;;
10717;SDS011;13513;42.700;23.124;2023-12-20T02:32:39;18.30;;;9.77;;
10717;SDS011;13513;42.700;23.124;2023-12-20T02:35:07;16.13;;;8.43;;
10717;SDS011;13513;42.700;23.124;2023-12-20T02:37:34;14.20;;;8.43;;
10717;SDS011;13513;42.700;23.124;2023-12-20T02:40:02;12.23;;;7.10;;
10717;SDS011;13513;42.700;23.124;2023-12-20T02:42:30;15.93;;;6.97;;
10717;SDS011;13513;42.700;23.124;2023-12-20T02:44:57;15.30;;;7.17;;
10717;SDS011;13513;42.700;23.124;2023-12-20T02:47:25;14.40;;;7.93;;
10717;SDS011;13513;42.700;23.124;2023-12-20T02:49:52;12.77;;;7.93;;
10717;SDS011;13513;42.700;23.124;2023-12-20T02:52:20;13.20;;;6.90;;
10717;SDS011;13513;42.700;23.124;2023-12-20T02:54:48;7.23;;;4.50;;
10717;SDS011;13513;42.700;23.124;2023-12-20T02:57:15;7.37;;;4.70;;
10717;SDS011;13513;42.700;23.124;2023-12-20T02:59:43;8.53;;;5.23;;
10717;SDS011;13513;42.700;23.124;2023-12-20T03:02:10;15.17;;;7.87;;
10717;SDS011;13513;42.700;23.124;2023-12-20T03:04:38;9.33;;;5.83;;
10717;SDS011;13513;42.700;23.124;2023-12-20T03:07:05;7.33;;;4.60;;
10717;SDS011;13513;42.700;23.124;2023-12-20T03:09:33;6.37;;;3.60;;
10717;SDS011;13513;42.700;23.124;2023-12-20T03:12:00;9.97;;;3.70;;
10717;SDS011;13513;42.700;23.124;2023-12-20T03:14:27;4.97;;;3.60;;
10717;SDS011;13513;42.700;23.124;2023-12-20T03:16:55;4.80;;;3.43;;
10717;SDS011;13513;42.700;23.124;2023-12-20T03:19:22;4.37;;;3.20;;
10717;SDS011;13513;42.700;23.124;2023-12-20T03:21:50;5.00;;;3.23;;
10717;SDS011;13513;42.700;23.124;2023-12-20T03:24:19;4.83;;;3.10;;
10717;SDS011;13513;42.700;23.124;2023-12-20T03:26:46;4.47;;;3.47;;
10717;SDS011;13513;42.700;23.124;2023-12-20T03:29:14;8.57;;;3.60;;
10717;SDS011;13513;42.700;23.124;2023-12-20T03:31:41;6.23;;;3.63;;
10717;SDS011;13513;42.700;23.124;2023-12-20T03:34:08;5.13;;;3.63;;
10717;SDS011;13513;42.700;23.124;2023-12-20T03:36:36;6.73;;;3.93;;
10717;SDS011;13513;42.700;23.124;2023-12-20T03:39:04;6.20;;;3.67;;
10717;SDS011;13513;42.700;23.124;2023-12-20T03:41:32;7.87;;;3.93;;
10717;SDS011;13513;42.700;23.124;2023-12-20T03:43:59;6.10;;;3.90;;
10717;SDS011;13513;42.700;23.124;2023-12-20T03:46:26;9.03;;;4.57;;
10717;SDS011;13513;42.700;23.124;2023-12-20T03:48:54;7.63;;;4.17;;
10717;SDS011;13513;42.700;23.124;2023-12-20T03:51:21;6.57;;;4.33;;
10717;SDS011;13513;42.700;23.124;2023-12-20T03:53:49;8.70;;;3.67;;
10717;SDS011;13513;42.700;23.124;2023-12-20T03:56:16;7.57;;;3.87;;
10717;SDS011;13513;42.700;23.124;2023-12-20T03:58:44;5.77;;;3.87;;
10717;SDS011;13513;42.700;23.124;2023-12-20T04:01:11;7.93;;;5.30;;
10717;SDS011;13513;42.700;23.124;2023-12-20T04:03:39;11.50;;;7.30;;
10717;SDS011;13513;42.700;23.124;2023-12-20T04:06:06;12.47;;;7.03;;
10717;SDS011;13513;42.700;23.124;2023-12-20T04:08:34;12.63;;;7.60;;
10717;SDS011;13513;42.700;23.124;2023-12-20T04:11:01;10.43;;;7.77;;
10717;SDS011;13513;42.700;23.124;2023-12-20T04:13:29;16.40;;;12.23;;
10717;SDS011;13513;42.700;23.124;2023-12-20T04:15:56;19.80;;;12.43;;
10717;SDS011;13513;42.700;23.124;2023-12-20T04:18:23;21.30;;;13.70;;
10717;SDS011;13513;42.700;23.124;2023-12-20T04:20:51;19.67;;;13.17;;
10717;SDS011;13513;42.700;23.124;2023-12-20T04:23:18;14.40;;;8.50;;
10717;SDS011;13513;42.700;23.124;2023-12-20T04:25:46;14.03;;;8.73;;
10717;SDS011;13513;42.700;23.124;2023-12-20T04:28:13;16.50;;;9.40;;
10717;SDS011;13513;42.700;23.124;2023-12-20T04:30:41;13.47;;;8.03;;
10717;SDS011;13513;42.700;23.124;2023-12-20T04:33:09;13.30;;;7.57;;
10717;SDS011;13513;42.700;23.124;2023-12-20T04:35:36;13.70;;;7.97;;
10717;SDS011;13513;42.700;23.124;2023-12-20T04:38:06;15.07;;;8.13;;
10717;SDS011;13513;42.700;23.124;2023-12-20T04:40:33;16.23;;;7.03;;
10717;SDS011;13513;42.700;23.124;2023-12-20T04:43:00;19.20;;;12.53;;
10717;SDS011;13513;42.700;23.124;2023-12-20T04:45:28;15.60;;;8.77;;
10717;SDS011;13513;42.700;23.124;2023-12-20T04:47:55;31.87;;;16.20;;
10717;SDS011;13513;42.700;23.124;2023-12-20T04:50:23;24.90;;;13.80;;
10717;SDS011;13513;42.700;23.124;2023-12-20T04:52:51;32.47;;;14.77;;
10717;SDS011;13513;42.700;23.124;2023-12-20T04:55:19;26.37;;;13.07;;
10717;SDS011;13513;42.700;23.124;2023-12-20T04:57:46;19.30;;;10.30;;
10717;SDS011;13513;42.700;23.124;2023-12-20T05:00:14;15.53;;;8.00;;
10717;SDS011;13513;42.700;23.124;2023-12-20T05:02:42;14.30;;;8.33;;
10717;SDS011;13513;42.700;23.124;2023-12-20T05:05:09;13.37;;;7.53;;
10717;SDS011;13513;42.700;23.124;2023-12-20T05:07:38;9.27;;;6.17;;
10717;SDS011;13513;42.700;23.124;2023-12-20T05:10:05;8.17;;;5.77;;
10717;SDS011;13513;42.700;23.124;2023-12-20T05:12:34;7.17;;;4.47;;
10717;SDS011;13513;42.700;23.124;2023-12-20T05:15:01;4.43;;;3.23;;
10717;SDS011;13513;42.700;23.124;2023-12-20T05:17:29;4.53;;;3.13;;
10717;SDS011;13513;42.700;23.124;2023-12-20T05:19:57;4.50;;;3.00;;
10717;SDS011;13513;42.700;23.124;2023-12-20T05:22:24;3.80;;;2.80;;
10717;SDS011;13513;42.700;23.124;2023-12-20T05:24:53;4.60;;;2.83;;
10717;SDS011;13513;42.700;23.124;2023-12-20T05:27:21;6.00;;;2.97;;
10717;SDS011;13513;42.700;23.124;2023-12-20T05:29:48;4.67;;;3.10;;
10717;SDS011;13513;42.700;23.124;2023-12-20T05:32:16;4.93;;;4.20;;
10717;SDS011;13513;42.700;23.124;2023-12-20T05:34:44;8.97;;;5.13;;
10717;SDS011;13513;42.700;23.124;2023-12-20T05:37:11;10.83;;;6.10;;
10717;SDS011;13513;42.700;23.124;2023-12-20T05:39:38;7.63;;;5.27;;
10717;SDS011;13513;42.700;23.124;2023-12-20T05:42:06;14.17;;;7.13;;
10717;SDS011;13513;42.700;23.124;2023-12-20T05:44:33;8.20;;;5.90;;
10717;SDS011;13513;42.700;23.124;2023-12-20T05:47:02;7.73;;;4.53;;
10717;SDS011;13513;42.700;23.124;2023-12-20T05:49:29;7.17;;;5.33;;
10717;SDS011;13513;42.700;23.124;2023-12-20T05:51:57;8.97;;;5.30;;
10717;SDS011;13513;42.700;23.124;2023-12-20T05:54:24;7.53;;;5.00;;
10717;SDS011;13513;42.700;23.124;2023-12-20T05:56:52;11.93;;;7.30;;
10717;SDS011;13513;42.700;23.124;2023-12-20T05:59:19;11.67;;;6.83;;
10717;SDS011;13513;42.700;23.124;2023-12-20T06:01:47;12.33;;;7.13;;
10717;SDS011;13513;42.700;23.124;2023-12-20T06:04:14;11.97;;;6.50;;
10717;SDS011;13513;42.700;23.124;2023-12-20T06:06:42;10.93;;;6.60;;
10717;SDS011;13513;42.700;23.124;2023-12-20T06:09:10;8.73;;;5.63;;
10717;SDS011;13513;42.700;23.124;2023-12-20T06:11:38;10.27;;;5.30;;
10717;SDS011;13513;42.700;23.124;2023-12-20T06:14:05;8.20;;;5.33;;
10717;SDS011;13513;42.700;23.124;2023-12-20T06:16:33;10.47;;;6.20;;
10717;SDS011;13513;42.700;23.124;2023-12-20T06:19:00;10.93;;;7.33;;
10717;SDS011;13513;42.700;23.124;2023-12-20T06:21:28;15.60;;;10.63;;
10717;SDS011;13513;42.700;23.124;2023-12-20T06:23:55;12.53;;;7.40;;
10717;SDS011;13513;42.700;23.124;2023-12-20T06:26:24;17.07;;;9.80;;
10717;SDS011;13513;42.700;23.124;2023-12-20T06:28:51;14.50;;;9.30;;
10717;SDS011;13513;42.700;23.124;2023-12-20T06:31:19;10.50;;;7.90;;
10717;SDS011;13513;42.700;23.124;2023-12-20T06:33:46;12.70;;;6.70;;
10717;SDS011;13513;42.700;23.124;2023-12-20T06:36:15;12.67;;;7.73;;
10717;SDS011;13513;42.700;23.124;2023-12-20T06:38:43;14.80;;;8.80;;
10717;SDS011;13513;42.700;23.124;2023-12-20T06:41:13;15.73;;;8.70;;
10717;SDS011;13513;42.700;23.124;2023-12-20T06:43:41;10.40;;;7.03;;
10717;SDS011;13513;42.700;23.124;2023-12-20T06:46:08;10.30;;;6.53;;
10717;SDS011;13513;42.700;23.124;2023-12-20T06:48:36;7.57;;;5.27;;
10717;SDS011;13513;42.700;23.124;2023-12-20T06:51:03;8.40;;;6.00;;
10717;SDS011;13513;42.700;23.124;2023-12-20T06:53:32;6.23;;;4.67;;
10717;SDS011;13513;42.700;23.124;2023-12-20T06:55:59;7.23;;;4.90;;
10717;SDS011;13513;42.700;23.124;2023-12-20T06:58:26;6.60;;;4.80;;
10717;SDS011;13513;42.700;23.124;2023-12-20T07:00:54;6.53;;;4.40;;
10717;SDS011;13513;42.700;23.124;2023-12-20T07:03:21;7.40;;;4.43;;
10717;SDS011;13513;42.700;23.124;2023-12-20T07:05:49;16.07;;;10.80;;
10717;SDS011;13513;42.700;23.124;2023-12-20T07:08:16;12.27;;;7.50;;
10717;SDS011;13513;42.700;23.124;2023-12-20T07:10:45;8.83;;;5.87;;
10717;SDS011;13513;42.700;23.124;2023-12-20T07:13:12;7.93;;;5.67;;
10717;SDS011;13513;42.700;23.124;2023-12-20T07:15:40;36.63;;;17.87;;
10717;SDS011;13513;42.700;23.124;2023-12-20T07:18:08;30.43;;;17.37;;
10717;SDS011;13513;42.700;23.124;2023-12-20T07:20:35;24.37;;;14.43;;
10717;SDS011;13513;42.700;23.124;2023-12-20T07:23:03;11.57;;;7.80;;
10717;SDS011;13513;42.700;23.124;2023-12-20T07:25:30;10.00;;;6.23;;
10717;SDS011;13513;42.700;23.124;2023-12-20T07:27:58;7.27;;;5.40;;
10717;SDS011;13513;42.700;23.124;2023-12-20T07:30:25;7.30;;;5.17;;
10717;SDS011;13513;42.700;23.124;2023-12-20T07:32:53;8.10;;;4.87;;
10717;SDS011;13513;42.700;23.124;2023-12-20T07:35:21;8.77;;;5.33;;
10717;SDS011;13513;42.700;23.124;2023-12-20T07:37:50;6.97;;;4.90;;
10717;SDS011;13513;42.700;23.124;2023-12-20T07:40:18;18.30;;;11.47;;
10717;SDS011;13513;42.700;23.124;2023-12-20T07:42:45;18.23;;;11.80;;
10717;SDS011;13513;42.700;23.124;2023-12-20T07:45:13;30.90;;;18.97;;
10717;SDS011;13513;42.700;23.124;2023-12-20T07:47:40;20.53;;;13.23;;
10717;SDS011;13513;42.700;23.124;2023-12-20T07:50:08;21.17;;;12.50;;
10717;SDS011;13513;42.700;23.124;2023-12-20T07:52:36;14.90;;;9.40;;
10717;SDS011;13513;42.700;23.124;2023-12-20T07:55:03;16.23;;;9.70;;
10717;SDS011;13513;42.700;23.124;2023-12-20T07:57:31;14.87;;;9.63;;
10717;SDS011;13513;42.700;23.124;2023-12-20T07:59:59;18.17;;;11.23;;
10717;SDS011;13513;42.700;23.124;2023-12-20T08:02:26;17.87;;;11.10;;
10717;SDS011;13513;42.700;23.124;2023-12-20T08:04:54;14.40;;;10.17;;
10717;SDS011;13513;42.700;23.124;2023-12-20T08:07:21;19.63;;;12.60;;
10717;SDS011;13513;42.700;23.124;2023-12-20T08:09:49;18.67;;;13.43;;
10717;SDS011;13513;42.700;23.124;2023-12-20T08:12:17;20.37;;;13.53;;
10717;SDS011;13513;42.700;23.124;2023-12-20T08:14:45;27.15;;;16.87;;
10717;SDS011;13513;42.700;23.124;2023-12-20T08:17:12;21.50;;;14.68;;
10717;SDS011;13513;42.700;23.124;2023-12-20T08:19:41;20.68;;;12.28;;
10717;SDS011;13513;42.700;23.124;2023-12-20T08:22:09;19.45;;;12.68;;
10717;SDS011;13513;42.700;23.124;2023-12-20T08:24:37;24.37;;;15.08;;
10717;SDS011;13513;42.700;23.124;2023-12-20T08:27:05;23.93;;;15.20;;
10717;SDS011;13513;42.700;23.124;2023-12-20T08:29:32;17.05;;;13.15;;
10717;SDS011;13513;42.700;23.124;2023-12-20T08:32:00;18.73;;;13.53;;
10717;SDS011;13513;42.700;23.124;2023-12-20T08:34:27;19.37;;;13.23;;
10717;SDS011;13513;42.700;23.124;2023-12-20T08:36:55;20.03;;;13.20;;
10717;SDS011;13513;42.700;23.124;2023-12-20T08:39:22;22.80;;;15.00;;
10717;SDS011;13513;42.700;23.124;2023-12-20T08:41:50;24.30;;;16.43;;
10717;SDS011;13513;42.700;23.124;2023-12-20T08:44:17;28.37;;;18.43;;
10717;SDS011;13513;42.700;23.124;2023-12-20T08:46:45;22.30;;;15.20;;
10717;SDS011;13513;42.700;23.124;2023-12-20T08:49:12;19.33;;;13.07;;
10717;SDS011;13513;42.700;23.124;2023-12-20T08:51:40;21.77;;;14.13;;
10717;SDS011;13513;42.700;23.124;2023-12-20T08:54:07;21.27;;;14.83;;
10717;SDS011;13513;42.700;23.124;2023-12-20T08:56:35;27.23;;;15.77;;
10717;SDS011;13513;42.700;23.124;2023-12-20T08:59:02;27.13;;;17.27;;
10717;SDS011;13513;42.700;23.124;2023-12-20T09:01:30;29.17;;;18.03;;
10717;SDS011;13513;42.700;23.124;2023-12-20T09:03:57;63.57;;;38.37;;
10717;SDS011;13513;42.700;23.124;2023-12-20T09:06:24;63.47;;;36.30;;
10717;SDS011;13513;42.700;23.124;2023-12-20T09:08:52;102.97;;;60.10;;
10717;SDS011;13513;42.700;23.124;2023-12-20T09:11:19;40.50;;;25.77;;
10717;SDS011;13513;42.700;23.124;2023-12-20T09:13:47;33.03;;;20.87;;
10717;SDS011;13513;42.700;23.124;2023-12-20T09:16:14;33.50;;;21.97;;
10717;SDS011;13513;42.700;23.124;2023-12-20T09:18:42;36.37;;;21.97;;
10717;SDS011;13513;42.700;23.124;2023-12-20T09:21:10;32.87;;;22.67;;
10717;SDS011;13513;42.700;23.124;2023-12-20T09:23:38;32.73;;;22.20;;
10717;SDS011;13513;42.700;23.124;2023-12-20T09:26:05;35.57;;;22.97;;
10717;SDS011;13513;42.700;23.124;2023-12-20T09:28:33;31.67;;;22.07;;
10717;SDS011;13513;42.700;23.124;2023-12-20T09:31:03;35.47;;;22.90;;
10717;SDS011;13513;42.700;23.124;2023-12-20T09:33:32;33.77;;;23.50;;
10717;SDS011;13513;42.700;23.124;2023-12-20T09:36:00;38.60;;;23.63;;
10717;SDS011;13513;42.700;23.124;2023-12-20T09:38:28;33.83;;;21.83;;
10717;SDS011;13513;42.700;23.124;2023-12-20T09:40:56;37.87;;;24.20;;
10717;SDS011;13513;42.700;23.124;2023-12-20T09:43:23;47.00;;;28.30;;
10717;SDS011;13513;42.700;23.124;2023-12-20T09:45:52;40.80;;;26.03;;
10717;SDS011;13513;42.700;23.124;2023-12-20T09:48:20;38.83;;;24.33;;
10717;SDS011;13513;42.700;23.124;2023-12-20T09:50:48;40.27;;;24.47;;
10717;SDS011;13513;42.700;23.124;2023-12-20T09:53:15;42.43;;;25.67;;
10717;SDS011;13513;42.700;23.124;2023-12-20T09:55:44;46.37;;;26.47;;
10717;SDS011;13513;42.700;23.124;2023-12-20T09:58:11;41.77;;;24.93;;
10717;SDS011;13513;42.700;23.124;2023-12-20T10:00:39;45.27;;;27.53;;
10717;SDS011;13513;42.700;23.124;2023-12-20T10:03:06;37.20;;;25.23;;
10717;SDS011;13513;42.700;23.124;2023-12-20T10:05:36;39.60;;;24.83;;
10717;SDS011;13513;42.700;23.124;2023-12-20T10:08:05;37.73;;;24.07;;
10717;SDS011;13513;42.700;23.124;2023-12-20T10:10:32;35.70;;;24.40;;
10717;SDS011;13513;42.700;23.124;2023-12-20T10:13:01;36.90;;;22.90;;
10717;SDS011;13513;42.700;23.124;2023-12-20T10:15:30;32.43;;;22.70;;
10717;SDS011;13513;42.700;23.124;2023-12-20T10:17:58;35.10;;;23.55;;
10717;SDS011;13513;42.700;23.124;2023-12-20T10:20:26;31.17;;;21.37;;
10717;SDS011;13513;42.700;23.124;2023-12-20T10:22:55;29.73;;;20.47;;
10717;SDS011;13513;42.700;23.124;2023-12-20T10:25:23;29.97;;;19.53;;
10717;SDS011;13513;42.700;23.124;2023-12-20T10:28:08;39.50;;;22.67;;
10717;SDS011;13513;42.700;23.124;2023-12-20T10:30:36;29.57;;;18.90;;
10717;SDS011;13513;42.700;23.124;2023-12-20T10:33:07;28.90;;;19.20;;
10717;SDS011;13513;42.700;23.124;2023-12-20T10:35:35;27.23;;;17.87;;
10717;SDS011;13513;42.700;23.124;2023-12-20T10:38:04;28.30;;;18.73;;
10717;SDS011;13513;42.700;23.124;2023-12-20T10:40:38;29.70;;;18.83;;
10717;SDS011;13513;42.700;23.124;2023-12-20T10:43:03;28.47;;;19.43;;
10717;SDS011;13513;42.700;23.124;2023-12-20T10:45:31;32.90;;;20.13;;
10717;SDS011;13513;42.700;23.124;2023-12-20T10:47:58;29.27;;;19.70;;
10717;SDS011;13513;42.700;23.124;2023-12-20T10:50:28;29.43;;;19.30;;
10717;SDS011;13513;42.700;23.124;2023-12-20T10:52:57;27.67;;;18.93;;
10717;SDS011;13513;42.700;23.124;2023-12-20T10:55:25;26.90;;;18.57;;
10717;SDS011;13513;42.700;23.124;2023-12-20T10:58:12;28.53;;;17.77;;
10717;SDS011;13513;42.700;23.124;2023-12-20T11:00:29;30.57;;;19.90;;
10717;SDS011;13513;42.700;23.124;2023-12-20T11:03:03;28.67;;;18.40;;
10717;SDS011;13513;42.700;23.124;2023-12-20T11:08:19;37.10;;;24.95;;
10717;SDS011;13513;42.700;23.124;2023-12-20T11:10:59;30.37;;;20.47;;
10717;SDS011;13513;42.700;23.124;2023-12-20T11:13:44;28.23;;;19.80;;
10717;SDS011;13513;42.700;23.124;2023-12-20T11:16:32;28.83;;;18.77;;
10717;SDS011;13513;42.700;23.124;2023-12-20T11:19:04;25.17;;;15.90;;
10717;SDS011;13513;42.700;23.124;2023-12-20T11:21:32;41.53;;;21.57;;
10717;SDS011;13513;42.700;23.124;2023-12-20T11:24:00;29.07;;;19.23;;
10717;SDS011;13513;42.700;23.124;2023-12-20T11:26:30;26.30;;;16.73;;
10717;SDS011;13513;42.700;23.124;2023-12-20T11:32:02;33.50;;;20.73;;
10717;SDS011;13513;42.700;23.124;2023-12-20T11:34:32;32.60;;;21.27;;
10717;SDS011;13513;42.700;23.124;2023-12-20T11:37:02;38.10;;;21.93;;
10717;SDS011;13513;42.700;23.124;2023-12-20T11:39:30;31.17;;;20.13;;
10717;SDS011;13513;42.700;23.124;2023-12-20T11:41:59;28.07;;;17.83;;
10717;SDS011;13513;42.700;23.124;2023-12-20T11:44:28;27.63;;;18.50;;
10717;SDS011;13513;42.700;23.124;2023-12-20T11:46:58;32.07;;;20.43;;
10717;SDS011;13513;42.700;23.124;2023-12-20T11:49:26;31.37;;;20.30;;
10717;SDS011;13513;42.700;23.124;2023-12-20T11:51:55;36.30;;;22.90;;
10717;SDS011;13513;42.700;23.124;2023-12-20T11:54:23;35.93;;;23.47;;
10717;SDS011;13513;42.700;23.124;2023-12-20T11:56:50;33.83;;;22.90;;
10717;SDS011;13513;42.700;23.124;2023-12-20T11:59:18;35.85;;;22.60;;
10717;SDS011;13513;42.700;23.124;2023-12-20T12:01:48;35.73;;;22.47;;
10717;SDS011;13513;42.700;23.124;2023-12-20T12:04:16;33.13;;;22.10;;
10717;SDS011;13513;42.700;23.124;2023-12-20T12:06:44;31.27;;;21.87;;
10717;SDS011;13513;42.700;23.124;2023-12-20T12:09:12;31.27;;;20.65;;
10717;SDS011;13513;42.700;23.124;2023-12-20T12:11:40;33.18;;;22.70;;
10717;SDS011;13513;42.700;23.124;2023-12-20T12:14:08;29.82;;;22.02;;
10717;SDS011;13513;42.700;23.124;2023-12-20T12:16:36;29.80;;;20.45;;
10717;SDS011;13513;42.700;23.124;2023-12-20T12:19:04;31.00;;;21.42;;
10717;SDS011;13513;42.700;23.124;2023-12-20T12:21:31;29.07;;;20.48;;
10717;SDS011;13513;42.700;23.124;2023-12-20T12:24:08;33.25;;;21.80;;
10717;SDS011;13513;42.700;23.124;2023-12-20T12:26:36;34.30;;;22.82;;
10717;SDS011;13513;42.700;23.124;2023-12-20T12:29:06;33.02;;;21.87;;
10717;SDS011;13513;42.700;23.124;2023-12-20T12:31:36;30.92;;;20.65;;
10717;SDS011;13513;42.700;23.124;2023-12-20T12:34:03;27.20;;;19.92;;
10717;SDS011;13513;42.700;23.124;2023-12-20T12:36:31;29.98;;;21.37;;
10717;SDS011;13513;42.700;23.124;2023-12-20T12:38:58;32.70;;;21.93;;
10717;SDS011;13513;42.700;23.124;2023-12-20T12:41:30;31.10;;;21.37;;
10717;SDS011;13513;42.700;23.124;2023-12-20T12:43:58;31.35;;;22.67;;
10717;SDS011;13513;42.700;23.124;2023-12-20T12:46:25;31.15;;;20.70;;
10717;SDS011;13513;42.700;23.124;2023-12-20T12:48:52;29.23;;;22.27;;
10717;SDS011;13513;42.700;23.124;2023-12-20T12:51:20;33.20;;;21.43;;
10717;SDS011;13513;42.700;23.124;2023-12-20T12:53:48;30.60;;;21.43;;
10717;SDS011;13513;42.700;23.124;2023-12-20T12:56:15;29.47;;;19.33;;
10717;SDS011;13513;42.700;23.124;2023-12-20T12:58:43;34.10;;;20.93;;
10717;SDS011;13513;42.700;23.124;2023-12-20T13:01:10;31.90;;;20.60;;
10717;SDS011;13513;42.700;23.124;2023-12-20T13:03:38;33.50;;;22.13;;
10717;SDS011;13513;42.700;23.124;2023-12-20T13:06:05;41.40;;;26.50;;
10717;SDS011;13513;42.700;23.124;2023-12-20T13:08:34;51.23;;;32.10;;
10717;SDS011;13513;42.700;23.124;2023-12-20T13:11:01;43.40;;;27.47;;
10717;SDS011;13513;42.700;23.124;2023-12-20T13:13:30;40.80;;;28.00;;
10717;SDS011;13513;42.700;23.124;2023-12-20T13:15:57;45.97;;;27.43;;
10717;SDS011;13513;42.700;23.124;2023-12-20T13:18:26;47.37;;;30.37;;
10717;SDS011;13513;42.700;23.124;2023-12-20T13:20:54;46.73;;;28.73;;
10717;SDS011;13513;42.700;23.124;2023-12-20T13:23:21;45.50;;;28.17;;
10717;SDS011;13513;42.700;23.124;2023-12-20T13:25:49;36.70;;;24.67;;
10717;SDS011;13513;42.700;23.124;2023-12-20T13:28:16;39.63;;;23.77;;
10717;SDS011;13513;42.700;23.124;2023-12-20T13:30:44;38.57;;;24.97;;
10717;SDS011;13513;42.700;23.124;2023-12-20T13:33:11;42.20;;;26.60;;
10717;SDS011;13513;42.700;23.124;2023-12-20T13:35:38;45.40;;;25.97;;
10717;SDS011;13513;42.700;23.124;2023-12-20T13:38:06;50.33;;;27.67;;
10717;SDS011;13513;42.700;23.124;2023-12-20T13:40:33;47.13;;;28.97;;
10717;SDS011;13513;42.700;23.124;2023-12-20T13:43:01;52.17;;;29.77;;
10717;SDS011;13513;42.700;23.124;2023-12-20T13:45:28;53.53;;;31.53;;
10717;SDS011;13513;42.700;23.124;2023-12-20T13:47:56;58.20;;;33.43;;
10717;SDS011;13513;42.700;23.124;2023-12-20T13:50:24;56.40;;;34.80;;
10717;SDS011;13513;42.700;23.124;2023-12-20T13:52:53;68.57;;;38.37;;
10717;SDS011;13513;42.700;23.124;2023-12-20T13:55:20;65.33;;;39.07;;
10717;SDS011;13513;42.700;23.124;2023-12-20T13:57:49;65.83;;;39.00;;
10717;SDS011;13513;42.700;23.124;2023-12-20T14:00:17;70.53;;;39.67;;
10717;SDS011;13513;42.700;23.124;2023-12-20T14:02:44;67.87;;;40.90;;
10717;SDS011;13513;42.700;23.124;2023-12-20T14:05:12;70.00;;;41.73;;
10717;SDS011;13513;42.700;23.124;2023-12-20T14:07:41;82.80;;;48.23;;
10717;SDS011;13513;42.700;23.124;2023-12-20T14:10:11;75.67;;;44.23;;
10717;SDS011;13513;42.700;23.124;2023-12-20T14:12:39;71.57;;;43.93;;
10717;SDS011;13513;42.700;23.124;2023-12-20T14:15:07;77.10;;;47.77;;
10717;SDS011;13513;42.700;23.124;2023-12-20T14:17:37;86.13;;;49.17;;
10717;SDS011;13513;42.700;23.124;2023-12-20T14:20:05;103.83;;;54.13;;
10717;SDS011;13513;42.700;23.124;2023-12-20T14:22:33;95.67;;;53.40;;
10717;SDS011;13513;42.700;23.124;2023-12-20T14:25:03;107.80;;;58.23;;
10717;SDS011;13513;42.700;23.124;2023-12-20T14:27:31;106.87;;;58.07;;